Time;durP1;ratioP1;P1;durP2;ratioP2;P2;SDS_P1;SDS_P2;PMS_P1;PMS_P2;Temp;Humidity;BMP_temperature;BMP_pressure;BME280_temperature;BME280_humidity;BME280_pressure;Samples;Min_cycle;Max_cycle;Signal;HPM_P1;HPM_P2
2022/04/28 00:01:58;;;;;;;11.57;8.32;;;5.80;99.90;;;;;;5071180;28;20483;-82
2022/04/28 00:04:24;;;;;;;9.30;8.20;;;6.00;99.90;;;;;;5070803;28;21450;-81
2022/04/28 00:06:49;;;;;;;8.63;7.70;;;6.00;99.90;;;;;;5069248;28;20398;-81
2022/04/28 00:09:15;;;;;;;8.77;7.97;;;5.90;99.90;;;;;;5069621;28;20550;-81
2022/04/28 00:11:41;;;;;;;8.53;7.40;;;6.00;99.90;;;;;;5069378;28;20378;-82
2022/04/28 00:14:09;;;;;;;8.20;7.40;;;6.00;99.90;;;;;;5069389;28;20378;-81
2022/04/28 00:16:35;;;;;;;8.52;7.70;;;6.00;99.90;;;;;;5070492;28;20444;-83
2022/04/28 00:19:02;;;;;;;8.73;7.82;;;6.10;99.90;;;;;;5070588;28;20386;-83
2022/04/28 00:21:28;;;;;;;7.85;7.05;;;6.20;99.90;;;;;;5086138;28;21594;-82
2022/04/28 00:23:53;;;;;;;7.70;6.93;;;6.10;99.90;;;;;;5086365;28;20461;-81
2022/04/28 00:26:20;;;;;;;8.77;7.40;;;6.10;99.90;;;;;;5085668;28;20430;-81
2022/04/28 00:28:46;;;;;;;9.65;7.25;;;6.00;99.90;;;;;;5069104;28;20490;-82
2022/04/28 00:31:11;;;;;;;8.17;7.37;;;6.00;99.90;;;;;;5070566;28;20418;-81
2022/04/28 00:33:38;;;;;;;7.57;6.83;;;6.00;99.90;;;;;;5070222;28;20381;-81
2022/04/28 00:36:04;;;;;;;8.32;7.53;;;6.00;99.90;;;;;;5070067;28;20385;-81
2022/04/28 00:38:29;;;;;;;7.70;7.00;;;5.90;99.90;;;;;;5068484;28;20406;-81
2022/04/28 00:40:55;;;;;;;8.47;7.57;;;5.80;99.90;;;;;;5069732;28;20374;-81
2022/04/28 00:43:26;;;;;;;8.90;8.00;;;5.80;99.90;;;;;;5068257;28;20439;-81
2022/04/28 00:45:51;;;;;;;9.55;8.10;;;5.70;99.90;;;;;;5068086;28;20509;-81
2022/04/28 00:51:04;;;;;;;8.85;7.97;;;5.70;99.90;;;;;;5069857;28;20381;-81
2022/04/28 00:53:32;;;;;;;9.75;8.50;;;5.70;99.90;;;;;;5068287;28;20741;-81
2022/04/28 00:55:58;;;;;;;10.68;8.35;;;5.60;99.90;;;;;;5067625;28;20394;-81
2022/04/28 00:58:24;;;;;;;9.43;8.52;;;5.60;99.90;;;;;;5069384;28;20376;-82
2022/04/28 01:00:50;;;;;;;9.63;8.45;;;5.70;99.90;;;;;;5069659;28;20366;-81
2022/04/28 01:03:16;;;;;;;10.32;9.00;;;5.60;99.90;;;;;;5066322;28;20467;-81
2022/04/28 01:05:42;;;;;;;9.70;8.68;;;5.60;99.90;;;;;;5069472;28;20390;-81
2022/04/28 01:08:08;;;;;;;9.55;8.65;;;5.60;99.90;;;;;;5068702;28;20398;-81
2022/04/28 01:10:36;;;;;;;11.88;9.60;;;5.70;99.90;;;;;;5069238;28;20425;-82
2022/04/28 01:13:03;;;;;;;10.37;9.27;;;5.70;99.90;;;;;;5068023;28;20380;-82
2022/04/28 01:15:29;;;;;;;10.80;9.80;;;5.70;99.90;;;;;;5069456;28;20415;-81
2022/04/28 01:17:55;;;;;;;13.00;10.90;;;5.70;99.90;;;;;;5067978;28;20398;-81
2022/04/28 01:20:21;;;;;;;11.37;9.60;;;5.80;99.90;;;;;;5067563;28;20442;-81
2022/04/28 01:22:46;;;;;;;10.75;9.25;;;5.70;99.90;;;;;;5085060;28;20392;-81
2022/04/28 01:25:12;;;;;;;10.48;9.48;;;5.70;99.90;;;;;;5068752;28;21564;-82
2022/04/28 01:27:38;;;;;;;9.90;8.90;;;5.70;99.90;;;;;;5068910;28;20409;-81
2022/04/28 01:30:11;;;;;;;10.90;9.10;;;5.60;99.90;;;;;;5067951;28;20406;-80
2022/04/28 01:32:37;;;;;;;10.65;9.55;;;5.50;99.90;;;;;;5067646;28;20422;-81
2022/04/28 01:35:03;;;;;;;12.03;9.67;;;5.40;99.90;;;;;;5069002;28;20425;-81
2022/04/28 01:37:28;;;;;;;9.93;8.83;;;5.30;99.90;;;;;;5068650;28;20367;-81
2022/04/28 01:39:56;;;;;;;10.53;8.83;;;5.30;99.90;;;;;;5067387;28;20931;-80
2022/04/28 01:42:23;;;;;;;12.05;9.70;;;5.10;99.90;;;;;;5069337;28;20385;-81
2022/04/28 01:44:49;;;;;;;11.47;10.27;;;5.10;99.90;;;;;;5071830;28;20465;-81
2022/04/28 01:47:15;;;;;;;11.93;9.68;;;4.90;99.90;;;;;;5068976;28;20492;-80
2022/04/28 01:49:41;;;;;;;10.90;9.83;;;4.90;99.90;;;;;;5050727;28;20398;-80
2022/04/28 01:54:57;;;;;;;11.43;10.25;;;4.70;99.90;;;;;;5068845;28;20736;-81
2022/04/28 01:57:24;;;;;;;12.00;10.70;;;4.60;99.90;;;;;;5067471;28;20501;-80
2022/04/28 01:59:50;;;;;;;11.37;9.73;;;4.60;99.90;;;;;;5067229;28;20397;-81
2022/04/28 02:02:16;;;;;;;11.40;10.30;;;4.50;99.90;;;;;;5068817;28;20438;-81
2022/04/28 02:04:42;;;;;;;11.70;10.50;;;4.50;99.90;;;;;;5068878;28;20860;-81
2022/04/28 02:07:07;;;;;;;12.87;10.30;;;4.50;99.90;;;;;;5083797;28;20473;-80
2022/04/28 02:09:33;;;;;;;12.20;10.30;;;4.50;99.90;;;;;;5068563;28;20374;-80
2022/04/28 02:11:59;;;;;;;12.40;11.10;;;4.40;99.90;;;;;;5067195;28;20756;-80
2022/04/28 02:14:25;;;;;;;12.00;10.80;;;4.50;99.90;;;;;;5084537;28;20393;-80
2022/04/28 02:16:51;;;;;;;14.03;12.20;;;4.50;99.90;;;;;;5067198;28;20524;-80
2022/04/28 02:19:18;;;;;;;12.17;10.93;;;4.50;99.90;;;;;;5069819;28;20771;-83
2022/04/28 02:21:44;;;;;;;12.38;10.90;;;4.40;99.90;;;;;;5072144;28;20513;-84
2022/04/28 02:24:09;;;;;;;12.55;11.20;;;4.40;99.90;;;;;;5071233;28;20386;-81
2022/04/28 02:26:35;;;;;;;12.57;11.20;;;4.30;99.90;;;;;;5070882;28;20753;-81
2022/04/28 02:29:01;;;;;;;12.88;11.50;;;4.30;99.90;;;;;;5072702;28;20378;-81
2022/04/28 02:31:26;;;;;;;12.23;10.95;;;4.20;99.90;;;;;;5088039;28;20374;-82
2022/04/28 02:33:52;;;;;;;12.27;11.07;;;4.10;99.90;;;;;;5087846;28;20404;-82
2022/04/28 02:36:17;;;;;;;12.00;10.90;;;4.10;99.90;;;;;;5071901;28;20378;-82
2022/04/28 02:38:43;;;;;;;12.97;11.07;;;4.00;99.90;;;;;;5070710;28;20440;-82
2022/04/28 02:41:09;;;;;;;12.77;11.48;;;4.10;99.90;;;;;;5072380;28;20422;-81
2022/04/28 02:43:34;;;;;;;13.50;12.10;;;4.00;99.90;;;;;;5070219;28;20385;-82
2022/04/28 02:46:00;;;;;;;12.20;11.00;;;4.00;99.90;;;;;;5071776;28;20397;-82
2022/04/28 02:48:26;;;;;;;12.80;11.50;;;4.00;99.90;;;;;;5072317;28;20406;-81
2022/04/28 02:50:52;;;;;;;13.50;11.57;;;3.90;99.90;;;;;;5071876;28;20469;-82
2022/04/28 02:53:18;;;;;;;13.10;11.63;;;3.90;99.90;;;;;;5071903;28;20520;-81
2022/04/28 02:55:44;;;;;;;13.57;12.18;;;3.90;99.90;;;;;;5071533;28;20378;-82
2022/04/28 02:58:10;;;;;;;14.23;12.77;;;3.90;99.90;;;;;;5071097;28;20385;-83
2022/04/28 03:00:39;;;;;;;15.23;12.35;;;3.90;99.90;;;;;;5087456;28;20382;-83
2022/04/28 03:03:05;;;;;;;12.55;11.25;;;3.70;99.90;;;;;;5070648;28;20598;-85
2022/04/28 03:05:30;;;;;;;14.82;12.65;;;3.70;99.90;;;;;;5071336;28;20724;-83
2022/04/28 03:10:49;;;;;;;15.23;13.60;;;3.60;99.90;;;;;;5071373;28;20447;-84
2022/04/28 03:13:17;;;;;;;13.93;12.52;;;3.50;99.90;;;;;;5071902;28;20488;-82
2022/04/28 03:15:43;;;;;;;14.02;12.63;;;3.50;99.90;;;;;;5070507;28;20378;-83
2022/04/28 03:18:08;;;;;;;14.17;12.70;;;3.50;99.90;;;;;;5071686;28;20386;-83
2022/04/28 03:20:34;;;;;;;14.37;12.83;;;3.50;99.90;;;;;;5070062;28;20398;-83
2022/04/28 03:23:00;;;;;;;14.55;12.98;;;3.50;99.90;;;;;;5070487;28;20903;-83
2022/04/28 03:25:25;;;;;;;13.35;11.95;;;3.50;99.90;;;;;;5070543;28;20440;-83
2022/04/28 03:27:51;;;;;;;14.05;12.55;;;3.50;99.90;;;;;;5070130;28;20445;-82
2022/04/28 03:30:16;;;;;;;14.00;12.33;;;3.50;99.90;;;;;;5070760;28;20883;-83
2022/04/28 03:32:42;;;;;;;12.90;11.63;;;3.50;99.90;;;;;;5074602;28;20469;-81
2022/04/28 03:35:10;;;;;;;13.30;12.00;;;3.40;99.90;;;;;;5070383;28;20386;-82
2022/04/28 03:37:36;;;;;;;12.90;11.60;;;3.50;99.90;;;;;;5071482;28;20374;-83
2022/04/28 03:40:02;;;;;;;12.73;11.43;;;3.40;99.90;;;;;;5071109;28;20390;-82
2022/04/28 03:42:28;;;;;;;14.00;12.40;;;3.40;99.90;;;;;;5071266;28;20736;-83
2022/04/28 03:44:54;;;;;;;14.02;12.63;;;3.40;99.90;;;;;;5070075;28;20417;-83
2022/04/28 03:47:21;;;;;;;14.07;12.75;;;3.40;99.90;;;;;;5069443;28;21077;-82
2022/04/28 03:49:46;;;;;;;15.05;13.45;;;3.40;99.90;;;;;;5069347;28;20473;-83
2022/04/28 03:52:12;;;;;;;15.35;13.75;;;3.60;99.90;;;;;;5069212;28;20469;-82
2022/04/28 03:54:38;;;;;;;14.68;13.23;;;3.60;99.90;;;;;;5086680;28;20456;-83
2022/04/28 03:57:04;;;;;;;15.75;13.82;;;3.50;99.90;;;;;;5069567;28;20907;-83
2022/04/28 03:59:30;;;;;;;15.85;14.23;;;3.50;99.90;;;;;;5070322;28;20386;-84
2022/04/28 04:01:56;;;;;;;15.23;13.32;;;3.40;99.90;;;;;;5049352;28;20483;-83
2022/04/28 04:04:21;;;;;;;14.68;13.18;;;3.30;99.90;;;;;;5073218;28;20378;-83
2022/04/28 04:06:47;;;;;;;15.07;12.83;;;3.30;99.90;;;;;;5070754;28;20498;-83
2022/04/28 04:09:12;;;;;;;14.37;12.87;;;3.30;99.90;;;;;;5068732;28;20425;-83
2022/04/28 04:11:38;;;;;;;14.37;12.90;;;3.30;99.90;;;;;;5052836;28;20419;-83
2022/04/28 04:14:03;;;;;;;14.95;13.15;;;3.30;99.90;;;;;;5069561;28;20389;-83
2022/04/28 04:16:29;;;;;;;13.07;11.80;;;3.40;99.90;;;;;;5070011;28;20468;-82
2022/04/28 04:18:55;;;;;;;13.90;12.50;;;3.50;99.90;;;;;;5069049;28;20480;-84
2022/04/28 04:21:20;;;;;;;14.30;12.43;;;3.60;99.90;;;;;;5070444;28;20411;-83
2022/04/28 04:23:46;;;;;;;13.35;11.95;;;3.50;99.90;;;;;;5070466;28;20755;-83
2022/04/28 04:26:12;;;;;;;13.00;11.60;;;3.60;99.90;;;;;;5070331;28;20514;-82
2022/04/28 04:28:37;;;;;;;14.65;11.52;;;3.70;99.90;;;;;;5086243;28;20417;-83
2022/04/28 04:33:47;;;;;;;27.50;12.50;;;3.90;99.90;;;;;;5070360;28;20894;-83
2022/04/28 04:36:13;;;;;;;12.77;11.48;;;4.00;99.90;;;;;;5069683;28;20390;-83
2022/04/28 04:38:38;;;;;;;11.77;10.63;;;4.20;99.90;;;;;;5068508;28;20911;-84
2022/04/28 04:41:05;;;;;;;13.67;11.87;;;4.60;99.90;;;;;;5070523;28;20481;-83
2022/04/28 04:43:31;;;;;;;12.87;11.37;;;4.90;99.90;;;;;;5069726;28;20439;-83
2022/04/28 04:45:57;;;;;;;13.40;10.07;;;5.00;99.90;;;;;;5068727;28;20402;-83
2022/04/28 04:48:23;;;;;;;10.95;9.95;;;5.30;99.90;;;;;;5069888;28;20501;-84
2022/04/28 04:50:49;;;;;;;11.23;10.23;;;5.30;99.90;;;;;;5068310;28;20401;-83
2022/04/28 04:53:14;;;;;;;11.17;10.07;;;5.30;99.90;;;;;;5069020;28;20465;-83
2022/04/28 04:55:40;;;;;;;10.80;9.77;;;5.40;99.90;;;;;;5069223;28;20390;-83
2022/04/28 04:58:06;;;;;;;10.70;9.60;;;5.50;99.90;;;;;;5068278;28;20400;-84
2022/04/28 05:00:33;;;;;;;10.90;9.90;;;5.50;99.90;;;;;;5069410;28;20484;-83
2022/04/28 05:03:04;;;;;;;11.20;10.10;;;5.70;99.90;;;;;;5068280;28;20386;-83
2022/04/28 05:05:30;;;;;;;13.00;11.73;;;5.80;99.90;;;;;;5068737;28;20382;-83
2022/04/28 05:07:57;;;;;;;12.13;11.02;;;6.00;99.90;;;;;;5069994;28;20409;-84
2022/04/28 05:10:23;;;;;;;11.63;10.35;;;6.10;99.90;;;;;;5068274;28;20444;-84
2022/04/28 05:12:48;;;;;;;13.43;12.05;;;6.30;99.90;;;;;;5051488;28;20764;-83
2022/04/28 05:15:14;;;;;;;13.27;11.98;;;6.50;99.90;;;;;;5069904;28;20925;-83
2022/04/28 05:17:40;;;;;;;12.80;11.38;;;6.50;99.90;;;;;;5069879;28;20820;-83
2022/04/28 05:20:07;;;;;;;12.25;11.05;;;6.60;99.90;;;;;;5068383;28;20377;-83
2022/04/28 05:22:33;;;;;;;12.77;11.57;;;6.60;99.90;;;;;;5068233;28;20386;-83
2022/04/28 05:24:59;;;;;;;22.47;11.83;;;6.70;99.90;;;;;;5068095;28;20469;-83
2022/04/28 05:27:24;;;;;;;16.10;12.00;;;6.90;99.90;;;;;;5067099;28;20398;-83
2022/04/28 05:29:51;;;;;;;17.80;12.40;;;7.00;99.90;;;;;;5067965;28;20414;-83
2022/04/28 05:32:16;;;;;;;19.98;13.35;;;7.30;99.90;;;;;;5067255;28;20753;-83
2022/04/28 05:34:42;;;;;;;20.27;14.15;;;7.40;99.90;;;;;;5068926;28;20373;-83
2022/04/28 05:37:09;;;;;;;19.33;13.80;;;7.60;99.90;;;;;;5068762;28;20435;-83
2022/04/28 05:39:35;;;;;;;19.30;13.43;;;7.80;99.90;;;;;;5067648;28;20386;-83
2022/04/28 05:42:01;;;;;;;19.97;14.50;;;8.10;99.90;;;;;;5067977;28;20388;-83
2022/04/28 05:47:12;;;;;;;18.63;14.52;;;8.30;99.90;;;;;;5068776;28;20413;-83
2022/04/28 05:49:38;;;;;;;18.05;14.27;;;8.40;99.90;;;;;;5067440;28;20382;-83
2022/04/28 05:52:04;;;;;;;17.70;13.63;;;8.70;99.90;;;;;;5068936;28;20374;-83
2022/04/28 05:54:29;;;;;;;23.37;14.83;;;8.80;99.90;;;;;;5068576;28;20407;-84
2022/04/28 05:56:55;;;;;;;17.15;13.88;;;8.90;99.90;;;;;;5067262;28;20385;-84
2022/04/28 05:59:21;;;;;;;22.60;14.57;;;9.10;99.90;;;;;;5067364;28;20961;-83
2022/04/28 06:01:46;;;;;;;23.37;14.43;;;9.20;99.90;;;;;;5067820;28;20879;-83
2022/04/28 06:04:12;;;;;;;26.92;15.30;;;9.30;99.90;;;;;;5069236;28;20371;-82
2022/04/28 06:06:38;;;;;;;27.38;15.70;;;9.50;99.90;;;;;;5068834;28;20390;-82
2022/04/28 06:09:05;;;;;;;19.77;13.82;;;9.50;99.90;;;;;;5068918;28;20374;-83
2022/04/28 06:11:32;;;;;;;15.57;13.88;;;9.80;99.90;;;;;;5067682;28;20458;-82
2022/04/28 06:13:57;;;;;;;18.77;14.35;;;9.90;99.90;;;;;;5066543;28;20466;-83
2022/04/28 06:16:23;;;;;;;16.50;14.70;;;9.80;99.90;;;;;;5068579;28;20427;-83
2022/04/28 06:18:50;;;;;;;16.23;13.68;;;10.00;99.90;;;;;;5069207;28;20735;-83
2022/04/28 06:21:15;;;;;;;14.57;12.93;;;9.90;99.90;;;;;;5066525;28;20378;-83
2022/04/28 06:23:41;;;;;;;16.60;13.77;;;10.10;99.90;;;;;;5067877;28;20937;-82
2022/04/28 06:26:07;;;;;;;16.77;14.02;;;10.20;99.90;;;;;;5067265;28;20452;-83
2022/04/28 06:28:32;;;;;;;13.95;12.38;;;10.10;99.90;;;;;;5066044;28;20423;-83
2022/04/28 06:30:58;;;;;;;15.77;12.83;;;10.40;99.90;;;;;;5074134;28;20436;-83
2022/04/28 06:33:23;;;;;;;17.27;12.70;;;10.60;99.90;;;;;;5066740;28;20845;-83
2022/04/28 06:35:49;;;;;;;15.73;13.30;;;10.80;99.90;;;;;;5066207;28;20374;-83
2022/04/28 06:38:14;;;;;;;17.20;12.55;;;10.90;99.90;;;;;;5066091;28;20413;-83
2022/04/28 06:40:40;;;;;;;16.20;12.17;;;11.20;99.90;;;;;;5066472;28;20794;-83
2022/04/28 06:43:07;;;;;;;14.77;12.47;;;11.40;99.90;;;;;;5068246;28;20393;-84
2022/04/28 06:45:32;;;;;;;16.00;11.93;;;11.60;99.90;;;;;;5082786;28;20823;-83
2022/04/28 06:47:58;;;;;;;16.13;12.00;;;12.00;99.90;;;;;;5067238;28;20436;-83
2022/04/28 06:50:24;;;;;;;14.18;10.70;;;12.20;99.90;;;;;;5072237;28;20385;-84
2022/04/28 06:52:52;;;;;;;16.60;11.25;;;12.30;99.90;;;;;;5071131;28;20395;-84
2022/04/28 06:55:18;;;;;;;15.45;11.05;;;12.50;99.90;;;;;;5067429;28;20436;-84
2022/04/28 06:57:44;;;;;;;12.23;10.65;;;12.70;99.90;;;;;;5062130;28;20398;-83
2022/04/28 07:00:10;;;;;;;12.57;10.95;;;12.90;99.90;;;;;;5082009;28;20534;-83
2022/04/28 07:02:36;;;;;;;13.60;10.95;;;13.00;99.90;;;;;;5051301;28;20396;-83
2022/04/28 07:05:02;;;;;;;12.93;10.60;;;13.10;99.90;;;;;;5062696;28;20485;-83
2022/04/28 07:07:27;;;;;;;13.93;10.40;;;13.20;99.90;;;;;;5049193;28;20434;-83
2022/04/28 07:09:53;;;;;;;14.30;10.87;;;13.50;99.90;;;;;;5050340;28;20877;-84
2022/04/28 07:12:18;;;;;;;15.00;10.48;;;13.80;99.90;;;;;;5050479;28;20386;-84
2022/04/28 07:14:44;;;;;;;15.13;10.10;;;13.90;99.90;;;;;;5051799;28;20881;-84
2022/04/28 07:17:11;;;;;;;12.38;9.75;;;13.90;99.90;;;;;;5050472;28;20383;-84
2022/04/28 07:19:36;;;;;;;11.30;9.43;;;13.60;99.90;;;;;;5051079;28;20391;-83
2022/04/28 07:22:05;;;;;;;11.70;8.75;;;13.60;99.90;;;;;;5066627;28;20376;-84
2022/04/28 07:24:31;;;;;;;16.00;8.50;;;13.80;99.90;;;;;;5050184;28;20388;-84
2022/04/28 07:26:57;;;;;;;12.13;8.32;;;13.80;99.90;;;;;;5055076;28;20441;-84
2022/04/28 07:29:23;;;;;;;12.52;8.60;;;13.70;99.90;;;;;;5069704;28;20420;-84
2022/04/28 07:31:48;;;;;;;13.77;9.73;;;13.60;99.90;;;;;;5071314;28;20804;-84
2022/04/28 07:34:14;;;;;;;13.73;8.95;;;13.40;99.90;;;;;;5076328;28;20463;-84
2022/04/28 07:36:40;;;;;;;12.30;8.82;;;13.40;99.90;;;;;;5107220;28;20377;-83
2022/04/28 07:39:05;;;;;;;12.10;8.43;;;13.50;99.90;;;;;;5091797;28;20398;-83
2022/04/28 07:41:31;;;;;;;11.82;8.05;;;13.70;99.90;;;;;;5081697;28;20377;-83
2022/04/28 07:43:56;;;;;;;11.97;8.30;;;13.70;99.90;;;;;;5073801;28;20374;-83
2022/04/28 07:46:22;;;;;;;13.10;8.67;;;13.70;99.90;;;;;;5099516;28;20389;-85
2022/04/28 07:48:48;;;;;;;12.73;7.67;;;14.00;99.90;;;;;;5095446;28;20397;-84
2022/04/28 07:51:13;;;;;;;15.47;8.13;;;14.20;99.90;;;;;;5085053;28;21214;-84
2022/04/28 07:53:39;;;;;;;10.70;7.82;;;14.50;99.90;;;;;;5087920;28;20873;-83
2022/04/28 07:56:13;;;;;;;11.30;7.77;;;14.90;99.90;;;;;;5083214;28;20447;-83
2022/04/28 07:58:40;;;;;;;11.95;7.38;;;14.80;99.90;;;;;;5070903;28;20378;-83
2022/04/28 08:01:06;;;;;;;11.93;7.40;;;14.70;99.90;;;;;;5073548;28;20439;-83
2022/04/28 08:03:32;;;;;;;10.83;7.47;;;14.60;99.90;;;;;;5069394;28;20362;-83
2022/04/28 08:05:58;;;;;;;11.07;7.20;;;14.80;99.90;;;;;;5071531;28;20385;-84
2022/04/28 08:08:24;;;;;;;9.63;6.32;;;15.00;99.90;;;;;;5082253;28;20390;-82
2022/04/28 08:10:50;;;;;;;11.07;7.03;;;15.20;99.90;;;;;;5070360;28;20381;-82
2022/04/28 08:13:16;;;;;;;11.70;7.13;;;15.40;99.90;;;;;;5081113;28;20384;-84
2022/04/28 08:15:42;;;;;;;17.70;7.75;;;15.70;99.90;;;;;;5088825;28;20393;-83
2022/04/28 08:18:10;;;;;;;9.98;6.70;;;15.90;99.90;;;;;;5086054;28;20517;-85
2022/04/28 08:20:39;;;;;;;12.67;6.70;;;15.90;99.90;;;;;;5067970;28;20374;-83
2022/04/28 08:23:05;;;;;;;10.90;6.25;;;16.00;99.90;;;;;;5069512;28;20370;-82
2022/04/28 08:25:31;;;;;;;8.73;5.72;;;;;;;;;;5070917;28;20426;-85
2022/04/28 08:27:57;;;;;;;9.05;5.40;;;;;;;;;;5080439;28;20859;-82
2022/04/28 08:30:23;;;;;;;14.88;6.00;;;;;;;;;;5069697;28;20389;-83
2022/04/28 08:32:49;;;;;;;14.20;5.82;;;;;;;;;;5069509;28;20397;-84
2022/04/28 08:35:15;;;;;;;14.07;5.88;;;16.40;98.70;;;;;;5076078;28;20846;-84
2022/04/28 08:37:40;;;;;;;11.37;5.63;;;16.50;97.70;;;;;;5071501;28;20370;-83
2022/04/28 08:40:07;;;;;;;13.65;6.07;;;16.70;97.90;;;;;;5069073;28;20414;-83
2022/04/28 08:42:37;;;;;;;13.52;6.15;;;16.70;97.20;;;;;;5068591;28;20880;-84
2022/04/28 08:45:04;;;;;;;14.23;6.47;;;16.60;96.60;;;;;;5068029;28;20406;-82
2022/04/28 08:47:30;;;;;;;12.82;6.53;;;16.60;97.80;;;;;;5084407;28;20402;-81
2022/04/28 08:49:56;;;;;;;9.93;6.32;;;16.90;96.40;;;;;;5068327;28;20382;-83
2022/04/28 08:52:21;;;;;;;12.05;6.82;;;16.90;98.20;;;;;;5068560;28;20380;-82
2022/04/28 08:54:47;;;;;;;10.23;6.50;;;17.00;95.90;;;;;;5084828;28;20741;-83
2022/04/28 08:57:13;;;;;;;9.93;6.72;;;17.10;97.50;;;;;;5069939;28;20378;-82
2022/04/28 08:59:40;;;;;;;13.90;6.78;;;17.30;96.30;;;;;;5084995;28;20485;-83
2022/04/28 09:02:07;;;;;;;12.17;8.10;;;17.20;97.30;;;;;;5068483;28;20946;-83
2022/04/28 09:04:33;;;;;;;13.15;7.13;;;17.40;95.40;;;;;;5067493;28;20390;-84
2022/04/28 09:06:59;;;;;;;11.43;7.70;;;17.00;95.40;;;;;;5072562;28;20397;-84
2022/04/28 09:09:27;;;;;;;15.88;8.32;;;16.50;96.20;;;;;;5067988;28;20409;-83
2022/04/28 09:11:58;;;;;;;13.23;7.82;;;15.80;96.30;;;;;;5072607;28;20405;-83
2022/04/28 09:14:24;;;;;;;10.48;7.78;;;15.60;97.60;;;;;;5072269;28;20380;-84
2022/04/28 09:17:03;;;;;;;12.93;8.00;;;15.70;96.40;;;;;;5052422;28;20455;-83
2022/04/28 09:19:39;;;;;;;12.82;7.55;;;15.90;97.50;;;;;;5065137;28;20395;-84
2022/04/28 09:22:09;;;;;;;11.13;7.23;;;16.30;96.60;;;;;;5048076;28;20391;-84
2022/04/28 09:24:35;;;;;;;11.23;6.80;;;16.40;95.20;;;;;;5055216;28;20783;-84
2022/04/28 09:27:02;;;;;;;12.80;7.13;;;16.60;93.80;;;;;;5068393;28;20398;-83
2022/04/28 09:29:30;;;;;;;10.85;6.50;;;16.60;94.30;;;;;;5084229;28;20993;-84
2022/04/28 09:31:56;;;;;;;9.43;6.75;;;16.30;94.30;;;;;;5068044;28;20509;-84
2022/04/28 09:34:23;;;;;;;14.68;7.13;;;16.70;93.90;;;;;;5067704;28;20428;-84
2022/04/28 09:36:50;;;;;;;9.88;6.20;;;17.20;93.50;;;;;;5068285;28;20386;-85
2022/04/28 09:42:29;;;;;;;9.95;7.15;;;17.80;91.90;;;;;;5069799;28;20429;-83
2022/04/28 09:44:58;;;;;;;11.35;7.10;;;17.30;91.20;;;;;;5068642;28;20366;-84
2022/04/28 09:47:25;;;;;;;11.95;7.40;;;16.90;92.20;;;;;;5069619;28;20402;-83
2022/04/28 09:49:55;;;;;;;10.75;7.07;;;16.80;94.30;;;;;;5047303;28;20887;-83
2022/04/28 09:52:31;;;;;;;9.93;7.03;;;17.00;93.80;;;;;;5048732;28;20382;-84
2022/04/28 09:55:03;;;;;;;10.73;7.40;;;17.50;92.40;;;;;;5048758;28;20384;-84
2022/04/28 09:57:29;;;;;;;9.20;6.87;;;18.20;91.00;;;;;;5047562;28;20387;-86
2022/04/28 09:59:57;;;;;;;11.23;6.75;;;18.50;92.60;;;;;;5049449;28;20384;-84
2022/04/28 10:02:24;;;;;;;11.93;7.30;;;18.90;91.90;;;;;;5066554;28;20781;-84
2022/04/28 10:04:53;;;;;;;10.90;7.40;;;;;;;;;;5047953;28;20403;-84
2022/04/28 10:07:22;;;;;;;9.97;6.47;;;;;;;;;;5050120;28;20403;-85
2022/04/28 10:09:49;;;;;;;10.93;6.82;;;;;;;;;;5048576;28;20376;-84
2022/04/28 10:12:16;;;;;;;8.20;5.75;;;;;;;;;;5049505;28;20421;-84
2022/04/28 10:14:43;;;;;;;10.10;5.90;;;;;;;;;;5049447;28;20407;-85
2022/04/28 10:17:11;;;;;;;8.77;6.22;;;;;;;;;;5048056;28;20814;-84
2022/04/28 10:19:41;;;;;;;13.68;6.18;;;;;;;;;;5065670;28;20380;-84
2022/04/28 10:22:11;;;;;;;8.23;5.83;;;19.20;82.00;;;;;;5066093;28;20410;-84
2022/04/28 10:33:20;;;;;;;12.25;6.60;;;17.60;90.40;;;;;;5051495;28;20410;-84
2022/04/28 10:35:57;;;;;;;12.27;6.80;;;18.20;89.70;;;;;;5049044;28;20422;-83
2022/04/28 10:38:26;;;;;;;10.00;6.00;;;18.10;87.70;;;;;;5051142;28;20487;-83
2022/04/28 10:40:59;;;;;;;10.35;6.28;;;17.70;85.70;;;;;;5034081;28;20457;-83
2022/04/28 10:43:33;;;;;;;8.50;5.75;;;17.20;87.20;;;;;;5041837;28;20418;-85
2022/04/28 10:46:08;;;;;;;8.73;5.63;;;17.20;85.50;;;;;;5069644;28;20492;-85
2022/04/28 10:48:42;;;;;;;10.63;5.70;;;17.40;85.10;;;;;;5079317;28;20400;-84
2022/04/28 10:51:20;;;;;;;9.13;5.65;;;17.80;84.90;;;;;;5053218;28;20399;-84
2022/04/28 10:54:01;;;;;;;8.38;5.80;;;;;;;;;;5055189;28;20402;-84
2022/04/28 10:56:31;;;;;;;18.10;7.17;;;18.90;87.00;;;;;;5070346;28;20442;-85
2022/04/28 10:58:59;;;;;;;13.85;6.57;;;19.20;85.40;;;;;;5054719;28;20544;-84
2022/04/28 11:01:31;;;;;;;11.27;6.72;;;19.40;83.90;;;;;;5054373;28;20410;-84
2022/04/28 11:04:06;;;;;;;9.07;6.20;;;18.10;83.30;;;;;;5053491;28;20390;-83
2022/04/28 11:06:37;;;;;;;9.82;5.93;;;17.20;85.50;;;;;;5054564;28;20380;-84
2022/04/28 11:09:08;;;;;;;9.30;5.68;;;16.80;88.20;;;;;;5051563;28;20411;-83
2022/04/28 11:11:47;;;;;;;9.88;6.30;;;17.20;88.30;;;;;;5052845;28;21182;-84
2022/04/28 11:14:14;;;;;;;9.35;6.40;;;17.70;92.60;;;;;;5050196;28;20399;-84
2022/04/28 11:16:41;;;;;;;9.38;5.88;;;17.90;94.40;;;;;;5064521;28;20458;-83
2022/04/28 11:19:08;;;;;;;10.05;6.20;;;18.50;95.50;;;;;;5051617;28;20368;-84
2022/04/28 11:21:42;;;;;;;9.65;5.97;;;19.30;90.90;;;;;;5051714;28;20388;-85
2022/04/28 11:24:08;;;;;;;10.65;6.05;;;19.20;95.70;;;;;;5049918;28;20960;-85
2022/04/28 11:26:35;;;;;;;8.30;5.63;;;16.50;81.50;;;;;;5049676;28;20499;-85
2022/04/28 11:29:07;;;;;;;10.05;6.10;;;20.20;82.90;;;;;;5049578;28;20437;-84
2022/04/28 11:31:32;;;;;;;8.75;6.43;;;20.30;84.10;;;;;;5066726;28;20427;-84
2022/04/28 11:34:00;;;;;;;10.30;6.33;;;20.00;80.20;;;;;;5049708;28;20423;-83
2022/04/28 11:36:28;;;;;;;9.43;5.95;;;19.90;80.70;;;;;;5045932;28;20388;-85
2022/04/28 11:39:01;;;;;;;9.05;5.72;;;19.00;80.00;;;;;;5050679;28;20395;-85
2022/04/28 11:41:39;;;;;;;9.48;5.78;;;18.90;80.70;;;;;;5052323;28;20384;-83
2022/04/28 11:44:13;;;;;;;7.68;4.88;;;18.30;80.70;;;;;;5051676;28;20435;-83
2022/04/28 11:46:42;;;;;;;7.80;5.60;;;17.70;80.70;;;;;;5050716;28;20403;-84
2022/04/28 11:49:08;;;;;;;8.60;5.50;;;17.40;81.60;;;;;;5049540;28;20395;-83
2022/04/28 11:51:38;;;;;;;11.90;6.35;;;17.00;84.90;;;;;;5066854;28;20379;-83
2022/04/28 11:54:17;;;;;;;11.57;6.88;;;16.70;86.30;;;;;;5051297;28;20412;-85
2022/04/28 11:56:42;;;;;;;9.27;6.53;;;16.70;86.80;;;;;;5051093;28;20387;-84
2022/04/28 11:59:10;;;;;;;8.73;5.90;;;16.50;87.50;;;;;;5050429;28;20451;-84
2022/04/28 12:01:36;;;;;;;9.85;5.32;;;16.50;89.00;;;;;;5051139;28;20416;-83
2022/04/28 12:04:02;;;;;;;8.90;5.50;;;16.50;89.00;;;;;;5049253;28;20430;-85
2022/04/28 12:06:28;;;;;;;9.37;5.27;;;16.50;88.60;;;;;;5050489;28;20384;-84
2022/04/28 12:08:59;;;;;;;6.37;5.50;;;16.70;88.10;;;;;;5066914;28;20959;-85
2022/04/28 12:14:25;;;;;;;7.65;5.40;;;17.10;86.50;;;;;;5048967;28;20734;-85
2022/04/28 12:19:59;;;;;;;8.02;4.88;;;17.90;86.30;;;;;;5049660;28;20452;-85
2022/04/28 12:22:26;;;;;;;8.30;5.25;;;18.40;84.70;;;;;;5062594;28;20399;-83
2022/04/28 12:24:52;;;;;;;10.70;4.87;;;18.70;80.30;;;;;;5065880;28;20880;-85
2022/04/28 12:27:17;;;;;;;9.75;4.85;;;19.00;81.30;;;;;;5052642;28;20485;-85
2022/04/28 12:29:54;;;;;;;7.35;4.53;;;18.00;83.00;;;;;;5049925;28;20431;-84
2022/04/28 12:32:23;;;;;;;8.23;4.95;;;17.70;84.60;;;;;;5052538;28;20757;-83
2022/04/28 12:34:59;;;;;;;10.43;5.68;;;17.30;86.80;;;;;;5047585;28;20383;-83
2022/04/28 12:37:27;;;;;;;7.13;5.13;;;16.90;86.10;;;;;;5050550;28;20372;-85
2022/04/28 12:40:01;;;;;;;11.27;5.18;;;16.80;86.50;;;;;;5049454;28;20418;-83
2022/04/28 12:42:43;;;;;;;10.10;5.88;;;16.80;85.80;;;;;;5051029;28;20395;-83
2022/04/28 12:45:09;;;;;;;8.68;5.28;;;16.80;85.50;;;;;;5050097;28;20394;-85
2022/04/28 12:47:36;;;;;;;8.43;4.88;;;17.20;86.10;;;;;;5067433;28;20477;-83
2022/04/28 12:50:21;;;;;;;12.38;5.00;;;17.40;85.80;;;;;;5050838;28;20437;-84
2022/04/28 12:52:47;;;;;;;6.77;4.80;;;17.70;83.50;;;;;;5063826;28;20399;-84
2022/04/28 12:55:13;;;;;;;10.80;5.63;;;17.80;84.20;;;;;;5049333;28;20916;-84
2022/04/28 12:57:39;;;;;;;9.13;4.90;;;18.00;83.80;;;;;;5065956;28;20380;-84
2022/04/28 13:00:07;;;;;;;10.02;4.40;;;18.30;83.70;;;;;;5050710;28;20466;-83
2022/04/28 13:02:33;;;;;;;12.35;4.65;;;18.40;86.00;;;;;;5052967;28;20388;-84
2022/04/28 13:05:18;;;;;;;10.18;4.30;;;18.60;83.20;;;;;;5050433;28;20387;-84
2022/04/28 13:07:44;;;;;;;9.27;4.30;;;19.00;82.90;;;;;;5065903;28;20414;-83
2022/04/28 13:10:12;;;;;;;10.18;5.10;;;18.80;80.00;;;;;;5052624;28;20394;-84
2022/04/28 13:12:38;;;;;;;9.63;4.32;;;18.50;84.20;;;;;;5052013;28;20376;-83
2022/04/28 13:15:05;;;;;;;6.33;4.47;;;18.50;84.40;;;;;;5051960;28;20798;-84